sensor_id;sensor_type;location;lat;lon;timestamp;pressure;altitude;pressure_sealevel;temperature;humidity
66689;BME280;53587;59.318;18.084;2023-05-29T00:01:54;101847.88;;;19.51;84.17
66689;BME280;53587;59.318;18.084;2023-05-29T00:04:20;101847.28;;;19.18;84.23
66689;BME280;53587;59.318;18.084;2023-05-29T00:06:46;101848.16;;;19.39;89.05
66689;BME280;53587;59.318;18.084;2023-05-29T00:09:12;101855.09;;;19.83;91.32
66689;BME280;53587;59.318;18.084;2023-05-29T00:11:37;101846.00;;;20.13;91.47
66689;BME280;53587;59.318;18.084;2023-05-29T00:14:02;101857.31;;;20.32;91.12
66689;BME280;53587;59.318;18.084;2023-05-29T00:16:27;101853.41;;;20.54;92.25
66689;BME280;53587;59.318;18.084;2023-05-29T00:18:54;101854.00;;;20.30;86.47
66689;BME280;53587;59.318;18.084;2023-05-29T00:21:19;101857.34;;;19.81;85.82
66689;BME280;53587;59.318;18.084;2023-05-29T00:23:44;101861.16;;;19.54;85.52
66689;BME280;53587;59.318;18.084;2023-05-29T00:26:10;101852.28;;;19.31;84.64
66689;BME280;53587;59.318;18.084;2023-05-29T00:28:35;101854.25;;;19.51;88.33
66689;BME280;53587;59.318;18.084;2023-05-29T00:31:01;101856.25;;;19.87;90.57
66689;BME280;53587;59.318;18.084;2023-05-29T00:33:27;101854.00;;;20.15;91.65
66689;BME280;53587;59.318;18.084;2023-05-29T00:35:52;101856.19;;;20.33;89.80
66689;BME280;53587;59.318;18.084;2023-05-29T00:38:17;101858.41;;;20.47;91.29
66689;BME280;53587;59.318;18.084;2023-05-29T00:40:42;101861.13;;;20.62;90.97
66689;BME280;53587;59.318;18.084;2023-05-29T00:43:08;101859.84;;;20.03;86.04
66689;BME280;53587;59.318;18.084;2023-05-29T00:45:33;101872.81;;;19.66;85.25
66689;BME280;53587;59.318;18.084;2023-05-29T00:48:01;101867.22;;;19.40;84.97
66689;BME280;53587;59.318;18.084;2023-05-29T00:50:26;101868.28;;;19.19;84.67
66689;BME280;53587;59.318;18.084;2023-05-29T00:52:52;101872.75;;;19.45;89.37
66689;BME280;53587;59.318;18.084;2023-05-29T00:55:18;101875.59;;;19.82;90.95
66689;BME280;53587;59.318;18.084;2023-05-29T00:57:43;101875.88;;;20.06;91.49
66689;BME280;53587;59.318;18.084;2023-05-29T01:00:10;101890.25;;;20.23;89.70
66689;BME280;53587;59.318;18.084;2023-05-29T01:02:42;101891.66;;;20.36;91.27
66689;BME280;53587;59.318;18.084;2023-05-29T01:05:10;101901.56;;;20.53;90.96
66689;BME280;53587;59.318;18.084;2023-05-29T01:07:36;101898.50;;;20.65;90.27
66689;BME280;53587;59.318;18.084;2023-05-29T01:10:01;101899.09;;;20.72;90.73
66689;BME280;53587;59.318;18.084;2023-05-29T01:17:24;101896.22;;;19.33;84.67
66689;BME280;53587;59.318;18.084;2023-05-29T01:24:58;101933.72;;;19.87;89.89
66689;BME280;53587;59.318;18.084;2023-05-29T01:27:27;101928.16;;;20.07;91.55
66689;BME280;53587;59.318;18.084;2023-05-29T01:29:53;101948.66;;;20.27;89.73
66689;BME280;53587;59.318;18.084;2023-05-29T01:32:20;101964.16;;;20.43;90.54
66689;BME280;53587;59.318;18.084;2023-05-29T01:34:45;101953.06;;;20.59;91.37
66689;BME280;53587;59.318;18.084;2023-05-29T01:37:11;101966.91;;;20.69;90.50
66689;BME280;53587;59.318;18.084;2023-05-29T01:39:36;101955.59;;;20.14;86.46
66689;BME280;53587;59.318;18.084;2023-05-29T01:42:01;101960.19;;;19.62;84.85
66689;BME280;53587;59.318;18.084;2023-05-29T01:44:27;101965.03;;;19.34;84.07
66689;BME280;53587;59.318;18.084;2023-05-29T01:46:54;101969.88;;;19.06;83.91
66689;BME280;53587;59.318;18.084;2023-05-29T01:49:19;101973.91;;;19.36;88.82
66689;BME280;53587;59.318;18.084;2023-05-29T01:51:45;101962.66;;;19.69;90.84
66689;BME280;53587;59.318;18.084;2023-05-29T01:54:11;101964.13;;;19.92;90.69
66689;BME280;53587;59.318;18.084;2023-05-29T01:56:36;101958.06;;;20.05;91.21
66689;BME280;53587;59.318;18.084;2023-05-29T01:59:02;101964.97;;;20.23;91.08
66689;BME280;53587;59.318;18.084;2023-05-29T02:01:31;101967.19;;;20.37;90.89
66689;BME280;53587;59.318;18.084;2023-05-29T02:03:56;101984.63;;;20.53;91.36
66689;BME280;53587;59.318;18.084;2023-05-29T02:06:21;101985.47;;;20.64;90.22
66689;BME280;53587;59.318;18.084;2023-05-29T02:08:47;102001.56;;;20.72;91.29
66689;BME280;53587;59.318;18.084;2023-05-29T02:11:12;101997.38;;;20.23;85.51
66689;BME280;53587;59.318;18.084;2023-05-29T02:13:37;102004.94;;;19.59;84.16
66689;BME280;53587;59.318;18.084;2023-05-29T02:16:03;102003.16;;;19.32;85.13
66689;BME280;53587;59.318;18.084;2023-05-29T02:18:28;102007.75;;;19.06;84.85
66689;BME280;53587;59.318;18.084;2023-05-29T02:20:53;102014.00;;;19.39;89.19
66689;BME280;53587;59.318;18.084;2023-05-29T02:23:18;102020.47;;;19.75;91.09
66689;BME280;53587;59.318;18.084;2023-05-29T02:25:44;102023.06;;;19.92;90.57
66689;BME280;53587;59.318;18.084;2023-05-29T02:28:09;102032.22;;;20.14;91.98
66689;BME280;53587;59.318;18.084;2023-05-29T02:30:35;102030.59;;;20.28;90.91
66689;BME280;53587;59.318;18.084;2023-05-29T02:33:00;102037.78;;;20.44;91.94
66689;BME280;53587;59.318;18.084;2023-05-29T02:35:25;102028.13;;;20.63;90.88
66689;BME280;53587;59.318;18.084;2023-05-29T02:37:51;102028.66;;;20.49;89.46
66689;BME280;53587;59.318;18.084;2023-05-29T02:40:16;102022.22;;;19.92;85.01
66689;BME280;53587;59.318;18.084;2023-05-29T02:42:42;102033.16;;;19.56;85.41
66689;BME280;53587;59.318;18.084;2023-05-29T02:45:07;102039.66;;;19.34;84.82
66689;BME280;53587;59.318;18.084;2023-05-29T02:47:33;102039.19;;;19.47;88.41
66689;BME280;53587;59.318;18.084;2023-05-29T02:49:58;102044.59;;;19.85;90.80
66689;BME280;53587;59.318;18.084;2023-05-29T02:52:23;102042.19;;;20.15;91.28
66689;BME280;53587;59.318;18.084;2023-05-29T02:54:49;102046.66;;;20.31;90.03
66689;BME280;53587;59.318;18.084;2023-05-29T02:57:14;102044.19;;;20.45;91.28
66689;BME280;53587;59.318;18.084;2023-05-29T02:59:40;102051.94;;;20.58;89.94
66689;BME280;53587;59.318;18.084;2023-05-29T03:02:05;102049.16;;;20.69;90.56
66689;BME280;53587;59.318;18.084;2023-05-29T03:04:31;102061.38;;;20.73;89.12
66689;BME280;53587;59.318;18.084;2023-05-29T03:06:56;102047.44;;;20.01;84.45
66689;BME280;53587;59.318;18.084;2023-05-29T03:09:21;102059.16;;;19.60;84.06
66689;BME280;53587;59.318;18.084;2023-05-29T03:11:47;102064.59;;;19.44;83.78
66689;BME280;53587;59.318;18.084;2023-05-29T03:14:15;102071.16;;;19.28;86.53
66689;BME280;53587;59.318;18.084;2023-05-29T03:16:41;102064.16;;;19.68;90.06
66689;BME280;53587;59.318;18.084;2023-05-29T03:19:06;102062.34;;;19.94;91.66
66689;BME280;53587;59.318;18.084;2023-05-29T03:21:32;102061.28;;;20.11;91.34
66689;BME280;53587;59.318;18.084;2023-05-29T03:23:57;102063.81;;;20.23;90.32
66689;BME280;53587;59.318;18.084;2023-05-29T03:26:23;102074.06;;;20.38;91.49
66689;BME280;53587;59.318;18.084;2023-05-29T03:28:48;102082.66;;;20.52;90.13
66689;BME280;53587;59.318;18.084;2023-05-29T03:31:13;102080.16;;;20.60;91.06
66689;BME280;53587;59.318;18.084;2023-05-29T03:33:38;102077.16;;;20.72;91.33
66689;BME280;53587;59.318;18.084;2023-05-29T03:36:04;102073.81;;;20.65;87.09
66689;BME280;53587;59.318;18.084;2023-05-29T03:38:30;102076.69;;;19.86;84.60
66689;BME280;53587;59.318;18.084;2023-05-29T03:40:55;102093.13;;;19.55;84.88
66689;BME280;53587;59.318;18.084;2023-05-29T03:43:20;102092.13;;;19.24;84.70
66689;BME280;53587;59.318;18.084;2023-05-29T03:45:46;102097.09;;;19.27;87.62
66689;BME280;53587;59.318;18.084;2023-05-29T03:48:11;102097.84;;;19.60;90.94
66689;BME280;53587;59.318;18.084;2023-05-29T03:50:36;102102.69;;;19.85;92.26
66689;BME280;53587;59.318;18.084;2023-05-29T03:53:01;102099.19;;;20.00;90.47
66689;BME280;53587;59.318;18.084;2023-05-29T03:55:27;102094.78;;;20.15;90.26
66689;BME280;53587;59.318;18.084;2023-05-29T03:57:53;102068.81;;;20.31;90.93
66689;BME280;53587;59.318;18.084;2023-05-29T04:00:18;102093.16;;;20.44;89.61
66689;BME280;53587;59.318;18.084;2023-05-29T04:02:43;102087.66;;;20.55;90.91
66689;BME280;53587;59.318;18.084;2023-05-29T04:05:09;102093.19;;;20.65;89.46
66689;BME280;53587;59.318;18.084;2023-05-29T04:07:37;102101.00;;;20.73;89.89
66689;BME280;53587;59.318;18.084;2023-05-29T04:10:03;102097.63;;;20.61;86.92
66689;BME280;53587;59.318;18.084;2023-05-29T04:12:29;102098.50;;;19.83;84.58
66689;BME280;53587;59.318;18.084;2023-05-29T04:14:54;102103.25;;;19.39;84.52
66689;BME280;53587;59.318;18.084;2023-05-29T04:17:19;102101.72;;;19.16;84.29
66689;BME280;53587;59.318;18.084;2023-05-29T04:19:45;102107.56;;;19.20;87.28
66689;BME280;53587;59.318;18.084;2023-05-29T04:22:10;102110.56;;;19.56;90.07
66689;BME280;53587;59.318;18.084;2023-05-29T04:24:35;102123.38;;;19.77;90.06
66689;BME280;53587;59.318;18.084;2023-05-29T04:27:01;102119.34;;;19.95;92.20
66689;BME280;53587;59.318;18.084;2023-05-29T04:29:26;102106.41;;;20.11;90.47
66689;BME280;53587;59.318;18.084;2023-05-29T04:31:53;102113.06;;;20.26;91.46
66689;BME280;53587;59.318;18.084;2023-05-29T04:34:18;102117.53;;;20.42;91.14
66689;BME280;53587;59.318;18.084;2023-05-29T04:36:45;102109.81;;;20.55;90.58
66689;BME280;53587;59.318;18.084;2023-05-29T04:39:11;102111.75;;;20.70;91.21
66689;BME280;53587;59.318;18.084;2023-05-29T04:41:36;102117.78;;;20.36;85.37
66689;BME280;53587;59.318;18.084;2023-05-29T04:44:02;102124.44;;;19.66;84.29
66689;BME280;53587;59.318;18.084;2023-05-29T04:46:29;102122.59;;;19.34;84.26
66689;BME280;53587;59.318;18.084;2023-05-29T04:48:54;102117.66;;;19.04;83.60
66689;BME280;53587;59.318;18.084;2023-05-29T04:51:20;102129.66;;;19.20;88.69
66689;BME280;53587;59.318;18.084;2023-05-29T04:53:46;102115.78;;;19.52;90.92
66689;BME280;53587;59.318;18.084;2023-05-29T04:56:12;102121.41;;;19.73;91.28
66689;BME280;53587;59.318;18.084;2023-05-29T04:58:41;102112.41;;;19.88;90.21
66689;BME280;53587;59.318;18.084;2023-05-29T05:01:06;102116.03;;;20.04;90.63
66689;BME280;53587;59.318;18.084;2023-05-29T05:03:33;102113.63;;;20.23;91.07
66689;BME280;53587;59.318;18.084;2023-05-29T05:05:59;102113.09;;;20.36;89.54
66689;BME280;53587;59.318;18.084;2023-05-29T05:08:24;102110.91;;;20.49;90.31
66689;BME280;53587;59.318;18.084;2023-05-29T05:10:49;102107.31;;;20.64;89.02
66689;BME280;53587;59.318;18.084;2023-05-29T05:13:15;102092.13;;;20.71;88.40
66689;BME280;53587;59.318;18.084;2023-05-29T05:15:40;102095.63;;;20.25;85.68
66689;BME280;53587;59.318;18.084;2023-05-29T05:18:05;102087.03;;;20.06;85.56
66689;BME280;53587;59.318;18.084;2023-05-29T05:20:30;102097.25;;;20.06;85.09
66689;BME280;53587;59.318;18.084;2023-05-29T05:22:56;102100.34;;;20.25;88.41
66689;BME280;53587;59.318;18.084;2023-05-29T05:25:22;102107.03;;;20.70;89.86
66689;BME280;53587;59.318;18.084;2023-05-29T05:27:47;102095.44;;;20.68;86.63
66689;BME280;53587;59.318;18.084;2023-05-29T05:30:12;102094.28;;;20.59;85.28
66689;BME280;53587;59.318;18.084;2023-05-29T05:32:38;102088.22;;;20.57;85.69
66689;BME280;53587;59.318;18.084;2023-05-29T05:35:03;102084.88;;;20.60;84.58
66689;BME280;53587;59.318;18.084;2023-05-29T05:37:28;102091.00;;;20.83;86.33
66689;BME280;53587;59.318;18.084;2023-05-29T05:39:54;102085.47;;;21.03;87.15
66689;BME280;53587;59.318;18.084;2023-05-29T05:42:19;102082.13;;;21.12;86.81
66689;BME280;53587;59.318;18.084;2023-05-29T05:44:45;102088.19;;;21.29;87.14
66689;BME280;53587;59.318;18.084;2023-05-29T05:47:10;102092.91;;;21.34;86.11
66689;BME280;53587;59.318;18.084;2023-05-29T05:49:35;102089.00;;;21.40;86.25
66689;BME280;53587;59.318;18.084;2023-05-29T05:52:00;102090.34;;;21.53;86.79
66689;BME280;53587;59.318;18.084;2023-05-29T05:54:26;102090.34;;;21.53;86.25
66689;BME280;53587;59.318;18.084;2023-05-29T05:56:54;102095.91;;;21.43;85.88
66689;BME280;53587;59.318;18.084;2023-05-29T05:59:20;102104.25;;;21.43;85.63
66689;BME280;53587;59.318;18.084;2023-05-29T06:01:45;102100.63;;;21.42;85.52
66689;BME280;53587;59.318;18.084;2023-05-29T06:04:13;102111.97;;;21.46;85.68
66689;BME280;53587;59.318;18.084;2023-05-29T06:06:38;102104.50;;;21.46;85.41
66689;BME280;53587;59.318;18.084;2023-05-29T06:09:03;102108.09;;;21.47;86.30
66689;BME280;53587;59.318;18.084;2023-05-29T06:11:30;102109.22;;;21.51;85.26
66689;BME280;53587;59.318;18.084;2023-05-29T06:13:57;102107.81;;;21.53;86.49
66689;BME280;53587;59.318;18.084;2023-05-29T06:16:25;102102.00;;;21.60;85.25
66689;BME280;53587;59.318;18.084;2023-05-29T06:18:51;102108.66;;;21.59;85.60
66689;BME280;53587;59.318;18.084;2023-05-29T06:21:17;102114.22;;;21.44;85.04
66689;BME280;53587;59.318;18.084;2023-05-29T06:23:42;102109.75;;;21.53;85.63
66689;BME280;53587;59.318;18.084;2023-05-29T06:26:08;102107.56;;;21.45;85.67
66689;BME280;53587;59.318;18.084;2023-05-29T06:28:33;102104.78;;;21.50;85.77
66689;BME280;53587;59.318;18.084;2023-05-29T06:31:01;102110.84;;;21.52;85.51
66689;BME280;53587;59.318;18.084;2023-05-29T06:33:27;102102.56;;;21.47;85.36
66689;BME280;53587;59.318;18.084;2023-05-29T06:35:54;102108.94;;;21.52;85.85
66689;BME280;53587;59.318;18.084;2023-05-29T06:38:20;102108.63;;;21.54;85.84
66689;BME280;53587;59.318;18.084;2023-05-29T06:40:45;102118.06;;;21.53;85.22
66689;BME280;53587;59.318;18.084;2023-05-29T06:43:10;102121.44;;;21.45;85.04
66689;BME280;53587;59.318;18.084;2023-05-29T06:45:36;102121.94;;;21.52;85.43
66689;BME280;53587;59.318;18.084;2023-05-29T06:48:04;102117.00;;;21.44;84.64
66689;BME280;53587;59.318;18.084;2023-05-29T06:50:29;102119.22;;;21.36;85.32
66689;BME280;53587;59.318;18.084;2023-05-29T06:52:55;102115.91;;;21.34;84.76
66689;BME280;53587;59.318;18.084;2023-05-29T06:55:20;102117.28;;;21.32;85.91
66689;BME280;53587;59.318;18.084;2023-05-29T06:57:46;102117.00;;;21.38;85.27
66689;BME280;53587;59.318;18.084;2023-05-29T07:00:11;102115.59;;;21.36;85.01
66689;BME280;53587;59.318;18.084;2023-05-29T07:02:43;102108.16;;;21.31;86.03
66689;BME280;53587;59.318;18.084;2023-05-29T07:05:08;102112.84;;;21.36;84.87
66689;BME280;53587;59.318;18.084;2023-05-29T07:07:33;102111.72;;;21.37;85.87
66689;BME280;53587;59.318;18.084;2023-05-29T07:09:59;102122.81;;;21.42;85.26
66689;BME280;53587;59.318;18.084;2023-05-29T07:12:24;102113.69;;;21.36;85.52
66689;BME280;53587;59.318;18.084;2023-05-29T07:14:49;102112.00;;;21.35;85.91
66689;BME280;53587;59.318;18.084;2023-05-29T07:17:15;102119.22;;;21.42;84.69
66689;BME280;53587;59.318;18.084;2023-05-29T07:19:40;102124.75;;;21.42;85.30
66689;BME280;53587;59.318;18.084;2023-05-29T07:22:06;102136.94;;;21.40;84.69
66689;BME280;53587;59.318;18.084;2023-05-29T07:24:31;102133.63;;;21.49;84.81
66689;BME280;53587;59.318;18.084;2023-05-29T07:26:56;102131.69;;;21.44;86.15
66689;BME280;53587;59.318;18.084;2023-05-29T07:29:21;102131.69;;;21.44;85.49
66689;BME280;53587;59.318;18.084;2023-05-29T07:31:48;102128.06;;;21.49;85.06
66689;BME280;53587;59.318;18.084;2023-05-29T07:34:13;102127.81;;;21.45;84.58
66689;BME280;53587;59.318;18.084;2023-05-29T07:36:55;102126.44;;;21.43;84.92
66689;BME280;53587;59.318;18.084;2023-05-29T07:39:21;102128.06;;;21.49;85.56
66689;BME280;53587;59.318;18.084;2023-05-29T07:41:46;102121.97;;;21.47;84.79
66689;BME280;53587;59.318;18.084;2023-05-29T07:44:11;102124.22;;;21.45;85.24
66689;BME280;53587;59.318;18.084;2023-05-29T07:46:37;102125.31;;;21.44;84.59
66689;BME280;53587;59.318;18.084;2023-05-29T07:49:02;102131.69;;;21.44;85.44
66689;BME280;53587;59.318;18.084;2023-05-29T07:51:27;102127.53;;;21.42;85.11
66689;BME280;53587;59.318;18.084;2023-05-29T07:53:52;102136.41;;;21.44;84.90
66689;BME280;53587;59.318;18.084;2023-05-29T07:56:17;102126.69;;;21.46;85.14
66689;BME280;53587;59.318;18.084;2023-05-29T07:58:43;102126.44;;;21.37;85.07
66689;BME280;53587;59.318;18.084;2023-05-29T08:01:08;102128.06;;;21.49;85.37
66689;BME280;53587;59.318;18.084;2023-05-29T08:03:33;102128.88;;;21.49;85.14
66689;BME280;53587;59.318;18.084;2023-05-29T08:06:01;102126.69;;;21.46;85.25
66689;BME280;53587;59.318;18.084;2023-05-29T08:08:27;102132.50;;;21.50;85.80
66689;BME280;53587;59.318;18.084;2023-05-29T08:10:52;102133.59;;;21.54;85.54
66689;BME280;53587;59.318;18.084;2023-05-29T08:13:17;102129.75;;;21.50;85.32
66689;BME280;53587;59.318;18.084;2023-05-29T08:15:42;102128.06;;;21.49;85.27
66689;BME280;53587;59.318;18.084;2023-05-29T08:18:08;102120.84;;;21.48;85.11
66689;BME280;53587;59.318;18.084;2023-05-29T08:20:33;102122.53;;;21.49;85.93
66689;BME280;53587;59.318;18.084;2023-05-29T08:23:00;102122.53;;;21.49;85.24
66689;BME280;53587;59.318;18.084;2023-05-29T08:25:25;102120.31;;;21.51;85.59
66689;BME280;53587;59.318;18.084;2023-05-29T08:27:50;102116.97;;;21.49;84.26
66689;BME280;53587;59.318;18.084;2023-05-29T08:30:16;102116.41;;;21.52;85.22
66689;BME280;53587;59.318;18.084;2023-05-29T08:32:41;102106.97;;;21.53;85.69
66689;BME280;53587;59.318;18.084;2023-05-29T08:35:07;102108.09;;;21.47;84.99
66689;BME280;53587;59.318;18.084;2023-05-29T08:37:33;102102.03;;;21.45;84.75
66689;BME280;53587;59.318;18.084;2023-05-29T08:39:58;102107.56;;;21.50;84.74
66689;BME280;53587;59.318;18.084;2023-05-29T08:42:31;102112.28;;;21.39;85.01
66689;BME280;53587;59.318;18.084;2023-05-29T08:44:58;102112.28;;;21.39;85.41
66689;BME280;53587;59.318;18.084;2023-05-29T08:47:26;102108.69;;;21.33;84.47
66689;BME280;53587;59.318;18.084;2023-05-29T08:49:52;102110.34;;;21.34;85.11
66689;BME280;53587;59.318;18.084;2023-05-29T08:52:24;102115.06;;;21.39;84.46
66689;BME280;53587;59.318;18.084;2023-05-29T08:54:56;102109.53;;;21.34;84.90
66689;BME280;53587;59.318;18.084;2023-05-29T08:57:26;102104.81;;;21.34;84.62
66689;BME280;53587;59.318;18.084;2023-05-29T09:00:01;102112.03;;;21.30;84.13
66689;BME280;53587;59.318;18.084;2023-05-29T09:02:33;102113.69;;;21.36;84.79
66689;BME280;53587;59.318;18.084;2023-05-29T09:05:00;102106.47;;;21.35;84.41
66689;BME280;53587;59.318;18.084;2023-05-29T09:07:26;102112.56;;;21.27;84.80
66689;BME280;53587;59.318;18.084;2023-05-29T09:09:51;102110.38;;;21.29;84.60
66689;BME280;53587;59.318;18.084;2023-05-29T09:12:16;102105.38;;;21.31;84.91
66689;BME280;53587;59.318;18.084;2023-05-29T09:14:42;102094.28;;;21.31;85.53
66689;BME280;53587;59.318;18.084;2023-05-29T09:17:08;102098.72;;;21.27;84.89
66689;BME280;53587;59.318;18.084;2023-05-29T09:19:34;102097.34;;;21.24;85.15
66689;BME280;53587;59.318;18.084;2023-05-29T09:22:03;102088.75;;;21.21;85.09
66689;BME280;53587;59.318;18.084;2023-05-29T09:24:29;102089.59;;;21.21;84.63
66689;BME280;53587;59.318;18.084;2023-05-29T09:26:55;102082.66;;;21.24;85.58
66689;BME280;53587;59.318;18.084;2023-05-29T09:29:21;102083.47;;;21.24;84.24
66689;BME280;53587;59.318;18.084;2023-05-29T09:31:46;102079.63;;;21.20;84.32
66689;BME280;53587;59.318;18.084;2023-05-29T09:34:12;102079.59;;;21.26;84.41
66689;BME280;53587;59.318;18.084;2023-05-29T09:36:38;102083.19;;;21.21;85.02
66689;BME280;53587;59.318;18.084;2023-05-29T09:39:07;102077.94;;;21.24;84.82
66689;BME280;53587;59.318;18.084;2023-05-29T09:41:41;102077.16;;;21.14;85.47
66689;BME280;53587;59.318;18.084;2023-05-29T09:44:07;102077.13;;;21.19;85.05
66689;BME280;53587;59.318;18.084;2023-05-29T09:46:35;102076.56;;;21.22;84.28
66689;BME280;53587;59.318;18.084;2023-05-29T09:49:01;102072.38;;;21.24;84.72
66689;BME280;53587;59.318;18.084;2023-05-29T09:51:26;102076.53;;;21.27;85.49
66689;BME280;53587;59.318;18.084;2023-05-29T09:53:51;102070.44;;;21.30;84.68
66689;BME280;53587;59.318;18.084;2023-05-29T09:56:18;102066.56;;;21.31;85.49
66689;BME280;53587;59.318;18.084;2023-05-29T09:58:47;102066.28;;;21.28;83.84
66689;BME280;53587;59.318;18.084;2023-05-29T10:01:14;102057.97;;;21.28;84.89
66689;BME280;53587;59.318;18.084;2023-05-29T10:03:42;102061.59;;;21.23;84.26
66689;BME280;53587;59.318;18.084;2023-05-29T10:06:08;102056.88;;;21.18;85.23
66689;BME280;53587;59.318;18.084;2023-05-29T10:08:37;102062.16;;;21.25;84.98
66689;BME280;53587;59.318;18.084;2023-05-29T10:11:04;102067.13;;;21.28;85.28
66689;BME280;53587;59.318;18.084;2023-05-29T10:13:35;102053.22;;;21.33;85.67
66689;BME280;53587;59.318;18.084;2023-05-29T10:16:10;102057.97;;;21.33;84.70
66689;BME280;53587;59.318;18.084;2023-05-29T10:18:47;102056.56;;;21.35;85.21
66689;BME280;53587;59.318;18.084;2023-05-29T10:21:14;102062.91;;;21.46;85.47
66689;BME280;53587;59.318;18.084;2023-05-29T10:23:41;102056.00;;;21.38;85.33
66689;BME280;53587;59.318;18.084;2023-05-29T10:26:15;102051.81;;;21.46;86.25
66689;BME280;53587;59.318;18.084;2023-05-29T10:28:42;102047.94;;;21.47;85.25
66689;BME280;53587;59.318;18.084;2023-05-29T10:31:09;102055.44;;;21.42;84.77
66689;BME280;53587;59.318;18.084;2023-05-29T10:36:20;102039.38;;;21.38;85.04
66689;BME280;53587;59.318;18.084;2023-05-29T10:38:49;102043.25;;;21.37;85.15
66689;BME280;53587;59.318;18.084;2023-05-29T10:44:37;102046.06;;;21.22;85.06
66689;BME280;53587;59.318;18.084;2023-05-29T10:49:16;102034.44;;;21.25;84.94
66689;BME280;53587;59.318;18.084;2023-05-29T10:51:44;102025.25;;;21.24;84.96
66689;BME280;53587;59.318;18.084;2023-05-29T10:54:10;102030.53;;;21.31;85.63
66689;BME280;53587;59.318;18.084;2023-05-29T10:56:38;102036.59;;;21.33;85.85
66689;BME280;53587;59.318;18.084;2023-05-29T10:59:04;102026.63;;;21.37;85.36
66689;BME280;53587;59.318;18.084;2023-05-29T11:01:32;102026.63;;;21.37;86.59
66689;BME280;53587;59.318;18.084;2023-05-29T11:04:24;102031.03;;;21.44;85.72
66689;BME280;53587;59.318;18.084;2023-05-29T11:06:46;102022.75;;;21.38;85.74
66689;BME280;53587;59.318;18.084;2023-05-29T11:09:31;102029.38;;;21.43;85.78
66689;BME280;53587;59.318;18.084;2023-05-29T11:14:54;102031.03;;;21.44;85.50
66689;BME280;53587;59.318;18.084;2023-05-29T11:17:30;102022.72;;;21.33;85.42
66689;BME280;53587;59.318;18.084;2023-05-29T11:20:02;102019.41;;;21.36;85.84
66689;BME280;53587;59.318;18.084;2023-05-29T11:22:33;102020.78;;;21.39;85.43
66689;BME280;53587;59.318;18.084;2023-05-29T11:25:07;102020.22;;;21.42;85.68
66689;BME280;53587;59.318;18.084;2023-05-29T11:27:32;102011.88;;;21.42;84.83
66689;BME280;53587;59.318;18.084;2023-05-29T11:29:58;102011.88;;;21.42;85.46
66689;BME280;53587;59.318;18.084;2023-05-29T11:32:24;102014.13;;;21.40;85.32
66689;BME280;53587;59.318;18.084;2023-05-29T11:34:51;101998.88;;;21.43;85.40
66689;BME280;53587;59.318;18.084;2023-05-29T11:37:24;102017.69;;;21.46;85.82
66689;BME280;53587;59.318;18.084;2023-05-29T11:39:50;101991.94;;;21.45;84.52
66689;BME280;53587;59.318;18.084;2023-05-29T11:42:16;102001.66;;;21.43;85.59
66689;BME280;53587;59.318;18.084;2023-05-29T11:44:41;102003.31;;;21.44;85.16
66689;BME280;53587;59.318;18.084;2023-05-29T11:47:07;101992.78;;;21.40;85.13
66689;BME280;53587;59.318;18.084;2023-05-29T11:49:33;101998.91;;;21.37;85.53
66689;BME280;53587;59.318;18.084;2023-05-29T11:52:06;101992.47;;;21.47;85.04
66689;BME280;53587;59.318;18.084;2023-05-29T11:54:32;101981.38;;;21.47;85.80
66689;BME280;53587;59.318;18.084;2023-05-29T11:56:58;101980.28;;;21.48;85.30
66689;BME280;53587;59.318;18.084;2023-05-29T11:59:28;101978.09;;;21.40;85.40
66689;BME280;53587;59.318;18.084;2023-05-29T12:01:53;101977.78;;;21.42;85.91
66689;BME280;53587;59.318;18.084;2023-05-29T12:04:18;101970.03;;;21.44;84.84
66689;BME280;53587;59.318;18.084;2023-05-29T12:06:44;101973.66;;;21.39;85.31
66689;BME280;53587;59.318;18.084;2023-05-29T12:09:09;101966.97;;;21.45;85.33
66689;BME280;53587;59.318;18.084;2023-05-29T12:11:49;101965.03;;;21.40;85.26
66689;BME280;53587;59.318;18.084;2023-05-29T12:14:14;101957.28;;;21.43;85.96
66689;BME280;53587;59.318;18.084;2023-05-29T12:16:39;101955.59;;;21.47;85.25
66689;BME280;53587;59.318;18.084;2023-05-29T12:19:05;101948.69;;;21.39;86.20
66689;BME280;53587;59.318;18.084;2023-05-29T12:21:31;101952.56;;;21.43;85.64
66689;BME280;53587;59.318;18.084;2023-05-29T12:23:57;101940.13;;;21.35;85.59
66689;BME280;53587;59.318;18.084;2023-05-29T12:26:23;101945.59;;;21.46;85.62
66689;BME280;53587;59.318;18.084;2023-05-29T12:28:50;101945.88;;;21.49;85.22
66689;BME280;53587;59.318;18.084;2023-05-29T12:31:27;101940.91;;;21.46;85.81
66689;BME280;53587;59.318;18.084;2023-05-29T12:33:53;101940.59;;;21.48;84.87
66689;BME280;53587;59.318;18.084;2023-05-29T12:36:18;101930.63;;;21.47;85.71
66689;BME280;53587;59.318;18.084;2023-05-29T12:38:47;101928.13;;;21.50;85.39
66689;BME280;53587;59.318;18.084;2023-05-29T12:41:26;101932.03;;;21.44;85.66
66689;BME280;53587;59.318;18.084;2023-05-29T12:43:57;101931.47;;;21.47;85.80
66689;BME280;53587;59.318;18.084;2023-05-29T12:46:23;101926.19;;;21.51;84.94
66689;BME280;53587;59.318;18.084;2023-05-29T12:48:49;101922.59;;;21.45;85.64
66689;BME280;53587;59.318;18.084;2023-05-29T12:51:15;101917.56;;;21.52;85.09
66689;BME280;53587;59.318;18.084;2023-05-29T12:53:40;101922.88;;;21.49;85.27
66689;BME280;53587;59.318;18.084;2023-05-29T12:56:05;101921.47;;;21.51;85.81
66689;BME280;53587;59.318;18.084;2023-05-29T12:58:30;101924.53;;;21.50;84.86